createdAt,value
2022-10-18T00:00:51.785Z,11.14
2022-10-18T00:03:20.090Z,11.06
2022-10-18T00:05:48.868Z,11.06
2022-10-18T00:08:17.410Z,11.05
2022-10-18T00:10:45.516Z,11.04
2022-10-18T00:13:12.952Z,10.91
2022-10-18T00:15:40.455Z,10.92
2022-10-18T00:18:08.149Z,10.89
2022-10-18T00:20:35.551Z,10.87
2022-10-18T00:23:03.163Z,10.89
2022-10-18T00:25:30.841Z,10.85
2022-10-18T00:27:58.341Z,10.84
2022-10-18T00:30:25.936Z,10.82
2022-10-18T00:32:53.636Z,10.79
2022-10-18T00:35:21.040Z,10.81
2022-10-18T00:37:48.404Z,10.83
2022-10-18T00:40:16.167Z,10.74
2022-10-18T00:42:43.556Z,10.78
2022-10-18T00:45:24.371Z,10.70
2022-10-18T00:47:56.557Z,10.71
2022-10-18T00:50:26.552Z,10.76
2022-10-18T00:52:58.466Z,10.69
2022-10-18T00:55:27.646Z,10.62
2022-10-18T00:57:55.921Z,10.60
2022-10-18T01:00:24.145Z,10.68
2022-10-18T01:02:52.007Z,10.58
2022-10-18T01:05:20.172Z,10.63
2022-10-18T01:07:47.476Z,10.61
2022-10-18T01:10:49.162Z,10.60
2022-10-18T01:14:06.496Z,10.60
2022-10-18T01:17:01.160Z,10.58
2022-10-18T01:19:53.603Z,10.50
2022-10-18T01:22:26.001Z,10.52
2022-10-18T01:27:51.015Z,10.35
2022-10-18T01:30:24.580Z,10.29
2022-10-18T01:32:57.918Z,10.29
2022-10-18T01:35:32.188Z,10.27
2022-10-18T01:38:05.457Z,10.22
2022-10-18T01:40:35.344Z,10.26
2022-10-18T01:43:04.650Z,10.35
2022-10-18T01:45:33.131Z,10.45
2022-10-18T01:48:02.115Z,10.55
2022-10-18T01:50:32.184Z,10.62
2022-10-18T01:53:00.047Z,10.65
2022-10-18T01:55:41.061Z,10.66
2022-10-18T01:58:08.737Z,10.74
2022-10-18T02:00:44.240Z,10.80
2022-10-18T02:03:23.871Z,10.85
2022-10-18T02:06:21.817Z,10.94
2022-10-18T02:09:04.415Z,10.95
2022-10-18T02:11:34.746Z,10.92
2022-10-18T02:14:12.722Z,10.91
2022-10-18T02:16:54.988Z,10.91
2022-10-18T02:19:30.990Z,10.73
2022-10-18T02:21:59.593Z,10.74
2022-10-18T02:24:34.421Z,10.73
2022-10-18T02:27:02.330Z,10.68
2022-10-18T02:29:31.858Z,10.66
2022-10-18T02:32:04.470Z,10.63
2022-10-18T02:34:45.310Z,10.59
2022-10-18T02:37:15.479Z,10.49
2022-10-18T02:39:47.446Z,10.51
2022-10-18T02:42:15.396Z,10.43
2022-10-18T02:44:43.104Z,10.35
2022-10-18T02:47:11.525Z,10.32
2022-10-18T02:49:38.952Z,10.23
2022-10-18T02:52:06.716Z,10.28
2022-10-18T02:54:34.141Z,10.18
2022-10-18T02:57:01.560Z,10.17
2022-10-18T02:59:29.245Z,10.16
2022-10-18T03:01:56.677Z,10.07
2022-10-18T03:04:24.236Z,10.03
2022-10-18T03:06:51.965Z,9.86
2022-10-18T03:09:19.364Z,9.82
2022-10-18T03:11:46.754Z,9.71
2022-10-18T03:14:14.561Z,9.69
2022-10-18T03:16:41.941Z,9.72
2022-10-18T03:19:09.336Z,9.76
2022-10-18T03:21:37.024Z,9.73
2022-10-18T03:24:04.832Z,9.69
2022-10-18T03:26:32.530Z,9.66
2022-10-18T03:29:00.219Z,9.63
2022-10-18T03:31:27.778Z,9.58
2022-10-18T03:33:55.206Z,9.67
2022-10-18T03:36:22.902Z,9.56
2022-10-18T03:38:50.419Z,9.61
2022-10-18T03:41:17.808Z,9.49
2022-10-18T03:43:45.836Z,9.53
2022-10-18T03:46:13.607Z,9.45
2022-10-18T03:48:41.071Z,9.32
2022-10-18T03:51:08.785Z,9.27
2022-10-18T03:53:36.195Z,9.29
2022-10-18T03:56:03.683Z,9.31
2022-10-18T03:58:31.400Z,9.35
2022-10-18T04:00:58.824Z,9.44
2022-10-18T04:03:26.601Z,9.53
2022-10-18T04:05:54.026Z,9.60
2022-10-18T04:08:21.528Z,9.62
2022-10-18T04:10:49.244Z,9.59
2022-10-18T04:13:16.627Z,9.52
2022-10-18T04:15:44.084Z,9.38
2022-10-18T04:18:11.775Z,9.39
2022-10-18T04:20:39.165Z,9.40
2022-10-18T04:23:06.804Z,9.36
2022-10-18T04:25:34.511Z,9.24
2022-10-18T04:28:01.974Z,9.12
2022-10-18T04:30:29.346Z,9.09
2022-10-18T04:32:56.995Z,8.90
2022-10-18T04:35:26.040Z,8.93
2022-10-18T04:37:53.429Z,8.99
2022-10-18T04:40:21.557Z,8.91
2022-10-18T04:42:48.995Z,8.83
2022-10-18T04:45:16.379Z,8.76
2022-10-18T04:47:44.035Z,8.82
2022-10-18T04:50:11.417Z,8.86
2022-10-18T04:52:38.879Z,8.79
2022-10-18T04:55:06.998Z,8.70
2022-10-18T04:57:34.613Z,8.75
2022-10-18T05:00:02.412Z,8.70
2022-10-18T05:02:30.384Z,8.69
2022-10-18T05:04:58.099Z,8.62
2022-10-18T05:07:25.533Z,8.58
2022-10-18T05:09:53.191Z,8.60
2022-10-18T05:12:20.701Z,8.67
2022-10-18T05:14:48.469Z,8.60
2022-10-18T05:17:16.156Z,8.67
2022-10-18T05:19:43.552Z,8.64
2022-10-18T05:22:10.923Z,8.57
2022-10-18T05:24:38.767Z,8.49
2022-10-18T05:27:06.163Z,8.54
2022-10-18T05:29:33.551Z,8.45
2022-10-18T05:32:01.230Z,8.48
2022-10-18T05:34:31.936Z,8.47
2022-10-18T05:37:00.242Z,8.40
2022-10-18T05:39:28.005Z,8.38
2022-10-18T05:41:55.374Z,8.40
2022-10-18T05:44:22.779Z,8.42
2022-10-18T05:46:50.530Z,8.46
2022-10-18T05:49:18.054Z,8.50
2022-10-18T05:51:45.456Z,8.54
2022-10-18T05:54:13.412Z,8.50
2022-10-18T05:56:41.720Z,8.56
2022-10-18T05:59:12.389Z,8.61
2022-10-18T06:01:42.006Z,8.67
2022-10-18T06:04:10.411Z,8.68
2022-10-18T06:06:38.643Z,8.76
2022-10-18T06:09:08.008Z,8.86
2022-10-18T06:11:37.016Z,8.91
2022-10-18T06:14:05.034Z,9.05
2022-10-18T06:16:32.907Z,9.19
2022-10-18T06:19:00.751Z,9.29
2022-10-18T06:21:28.303Z,9.49
2022-10-18T06:23:58.647Z,9.64
2022-10-18T06:26:27.897Z,9.86
2022-10-18T06:28:55.409Z,10.05
2022-10-18T06:31:22.968Z,10.28
2022-10-18T06:33:50.879Z,10.52
2022-10-18T06:36:22.056Z,10.60
2022-10-18T06:38:50.360Z,10.94
2022-10-18T06:41:19.326Z,11.18
2022-10-18T06:43:56.809Z,11.48
2022-10-18T06:46:25.842Z,11.62
2022-10-18T06:48:53.236Z,11.98
2022-10-18T06:51:20.631Z,12.34
2022-10-18T06:54:05.898Z,12.67
2022-10-18T06:56:36.392Z,12.96
2022-10-18T06:59:04.869Z,13.26
2022-10-18T07:01:32.319Z,13.46
2022-10-18T07:03:59.884Z,13.67
2022-10-18T07:06:27.632Z,13.77
2022-10-18T07:08:55.053Z,13.92
2022-10-18T07:11:25.363Z,14.16
2022-10-18T07:14:02.329Z,14.28
2022-10-18T07:16:30.466Z,14.31
2022-10-18T07:18:58.362Z,14.59
2022-10-18T07:21:26.547Z,14.88
2022-10-18T07:23:54.403Z,15.07
2022-10-18T07:26:23.748Z,15.31
2022-10-18T07:28:58.054Z,15.50
2022-10-18T07:31:26.700Z,15.78
2022-10-18T07:33:54.382Z,16.02
2022-10-18T07:36:22.278Z,16.30
2022-10-18T07:38:52.021Z,16.43
2022-10-18T07:41:20.162Z,16.73
2022-10-18T07:43:51.002Z,16.96
2022-10-18T07:46:20.500Z,16.96
2022-10-18T07:48:47.918Z,17.34
2022-10-18T07:51:15.893Z,17.59
2022-10-18T07:53:43.830Z,17.90
2022-10-18T07:56:18.080Z,18.10
2022-10-18T07:58:53.811Z,18.33
2022-10-18T08:01:22.918Z,18.48
2022-10-18T08:03:51.506Z,18.75
2022-10-18T08:06:20.292Z,18.66
2022-10-18T08:08:48.339Z,19.04
2022-10-18T08:11:19.493Z,19.33
2022-10-18T08:13:47.043Z,19.56
2022-10-18T08:16:20.941Z,19.79
2022-10-18T08:18:49.227Z,20.09
2022-10-18T08:21:18.794Z,20.13
2022-10-18T08:23:46.664Z,20.34
2022-10-18T08:26:19.927Z,20.41
2022-10-18T08:28:53.909Z,20.67
2022-10-18T08:31:26.290Z,20.82
2022-10-18T08:33:57.090Z,20.81
2022-10-18T08:36:25.122Z,21.04
2022-10-18T08:38:52.843Z,21.26
2022-10-18T08:41:32.070Z,21.42
2022-10-18T08:44:04.772Z,21.68
2022-10-18T08:46:37.595Z,21.59
2022-10-18T08:49:10.970Z,21.64
2022-10-18T08:51:46.752Z,21.69
2022-10-18T08:54:18.194Z,21.67
2022-10-18T08:56:58.165Z,21.79
2022-10-18T08:59:25.957Z,21.68
2022-10-18T09:02:23.507Z,22.13
2022-10-18T09:05:01.307Z,22.28
2022-10-18T09:07:56.463Z,22.39
2022-10-18T09:10:45.066Z,22.09
2022-10-18T09:13:42.280Z,21.96
2022-10-18T09:16:27.927Z,22.15
2022-10-18T09:19:13.785Z,22.35
2022-10-18T09:22:25.065Z,22.78
2022-10-18T09:25:11.456Z,23.10
2022-10-18T09:27:52.677Z,23.26
2022-10-18T09:30:32.995Z,23.52
2022-10-18T09:33:09.680Z,23.51
2022-10-18T09:35:50.816Z,23.60
2022-10-18T09:38:23.330Z,23.71
2022-10-18T09:40:59.798Z,23.85
2022-10-18T09:43:51.794Z,23.95
2022-10-18T09:46:21.534Z,23.88
2022-10-18T09:48:58.066Z,23.94
2022-10-18T09:51:29.598Z,23.99
2022-10-18T09:54:29.391Z,23.99
2022-10-18T09:57:08.367Z,24.11
2022-10-18T09:59:45.185Z,24.36
2022-10-18T10:02:15.539Z,24.08
2022-10-18T10:04:43.399Z,24.09
2022-10-18T10:07:35.444Z,24.10
2022-10-18T10:10:08.730Z,23.65
2022-10-18T10:12:39.179Z,23.34
2022-10-18T10:15:22.781Z,23.27
2022-10-18T10:17:58.903Z,22.75
2022-10-18T10:20:42.476Z,23.15
2022-10-18T10:23:44.602Z,22.91
2022-10-18T10:26:27.295Z,22.80
2022-10-18T10:28:54.950Z,22.62
2022-10-18T10:31:25.361Z,22.94
2022-10-18T10:34:01.311Z,22.80
2022-10-18T10:36:30.369Z,22.59
2022-10-18T10:39:16.235Z,22.89
2022-10-18T10:41:47.137Z,23.08
2022-10-18T10:44:20.235Z,23.22
2022-10-18T10:46:50.403Z,23.28
2022-10-18T10:52:28.080Z,22.91
2022-10-18T10:57:50.868Z,23.05
2022-10-18T11:00:42.855Z,23.15
2022-10-18T11:03:30.004Z,22.92
2022-10-18T11:06:00.489Z,22.99
2022-10-18T11:08:35.949Z,22.97
2022-10-18T11:11:26.883Z,22.78
2022-10-18T11:17:17.159Z,22.97
2022-10-18T11:19:52.820Z,22.84
2022-10-18T11:22:24.268Z,23.21
2022-10-18T11:24:52.094Z,23.02
2022-10-18T11:27:29.602Z,23.55
2022-10-18T11:30:29.023Z,23.65
2022-10-18T11:33:14.967Z,23.55
2022-10-18T11:36:21.364Z,23.09
2022-10-18T11:39:02.681Z,23.47
2022-10-18T11:41:51.704Z,23.52
2022-10-18T11:44:28.423Z,23.67
2022-10-18T11:47:19.683Z,23.38
2022-10-18T11:50:39.967Z,23.84
2022-10-18T11:53:10.270Z,23.80
2022-10-18T11:56:25.376Z,23.85
2022-10-18T11:59:13.288Z,23.97
2022-10-18T12:02:08.642Z,23.69
2022-10-18T12:04:49.096Z,23.76
2022-10-18T12:07:38.081Z,23.82
2022-10-18T12:10:09.728Z,24.05
2022-10-18T12:12:52.081Z,24.28
2022-10-18T12:15:25.638Z,23.85
2022-10-18T12:18:00.752Z,24.21
2022-10-18T12:20:54.380Z,23.94
2022-10-18T12:23:44.420Z,23.72
2022-10-18T12:26:12.465Z,23.46
2022-10-18T12:28:51.775Z,23.54
2022-10-18T12:31:27.701Z,23.98
2022-10-18T12:33:58.802Z,24.02
2022-10-18T12:36:48.144Z,24.14
2022-10-18T12:40:09.177Z,24.31
2022-10-18T12:42:47.038Z,24.72
2022-10-18T12:45:25.848Z,24.27
2022-10-18T12:47:55.325Z,24.07
2022-10-18T12:50:36.979Z,23.88
2022-10-18T12:53:10.776Z,23.83
2022-10-18T12:55:49.741Z,23.91
2022-10-18T12:58:32.132Z,23.93
2022-10-18T13:01:05.518Z,23.79
2022-10-18T13:03:57.139Z,23.87
2022-10-18T13:06:24.983Z,23.62
2022-10-18T13:09:19.017Z,23.59
2022-10-18T13:11:46.546Z,23.74
2022-10-18T13:14:49.393Z,23.86
2022-10-18T13:17:59.016Z,23.76
2022-10-18T13:20:38.591Z,23.68
2022-10-18T13:23:36.957Z,23.79
2022-10-18T13:26:20.462Z,23.72
2022-10-18T13:28:56.382Z,23.55
2022-10-18T13:31:37.692Z,23.56
2022-10-18T13:34:18.692Z,23.45
2022-10-18T13:36:56.780Z,23.43
2022-10-18T13:39:25.257Z,23.30
2022-10-18T13:41:58.802Z,23.28
2022-10-18T13:44:48.181Z,23.21
2022-10-18T13:47:33.724Z,23.23
2022-10-18T13:50:18.314Z,23.32
2022-10-18T13:53:29.389Z,23.56
2022-10-18T13:56:22.801Z,23.36
2022-10-18T13:59:15.399Z,23.24
2022-10-18T14:01:54.540Z,23.00
2022-10-18T14:04:39.793Z,22.91
2022-10-18T14:07:09.198Z,22.77
2022-10-18T14:09:52.415Z,22.96
2022-10-18T14:12:28.734Z,22.81
2022-10-18T14:15:07.685Z,22.67
2022-10-18T14:18:00.237Z,22.77
2022-10-18T14:20:30.308Z,22.60
2022-10-18T14:23:09.488Z,22.47
2022-10-18T14:25:38.599Z,22.40
2022-10-18T14:28:14.999Z,22.41
2022-10-18T14:31:09.295Z,22.26
2022-10-18T14:33:44.918Z,22.29
2022-10-18T14:36:21.969Z,22.21
2022-10-18T14:39:00.682Z,22.04
2022-10-18T14:41:30.845Z,22.08
2022-10-18T14:44:16.329Z,22.02
2022-10-18T14:46:44.984Z,21.82
2022-10-18T14:49:14.116Z,21.81
2022-10-18T14:51:43.981Z,21.81
2022-10-18T14:54:16.407Z,21.67
2022-10-18T14:56:44.751Z,21.53
2022-10-18T14:59:31.109Z,21.59
2022-10-18T15:02:02.145Z,21.49
2022-10-18T15:04:33.229Z,21.54
2022-10-18T15:07:06.547Z,21.56
2022-10-18T15:09:36.570Z,21.56
2022-10-18T15:12:06.654Z,21.57
2022-10-18T15:14:35.707Z,21.50
2022-10-18T15:17:08.390Z,21.46
2022-10-18T15:19:39.571Z,21.39
2022-10-18T15:22:30.948Z,21.18
2022-10-18T15:25:14.654Z,20.94
2022-10-18T15:27:46.380Z,20.78
2022-10-18T15:30:25.541Z,20.51
2022-10-18T15:32:56.289Z,20.23
2022-10-18T15:35:30.936Z,19.93
2022-10-18T15:38:02.532Z,19.66
2022-10-18T15:40:36.504Z,19.47
2022-10-18T15:43:25.767Z,19.19
2022-10-18T15:46:00.137Z,19.05
2022-10-18T15:48:37.824Z,18.77
2022-10-18T15:51:08.671Z,18.59
2022-10-18T15:54:05.189Z,18.46
2022-10-18T15:56:40.119Z,18.34
2022-10-18T15:59:23.815Z,18.26
2022-10-18T16:01:51.874Z,18.08
2022-10-18T16:04:26.602Z,18.02
2022-10-18T16:06:55.685Z,17.83
2022-10-18T16:09:25.873Z,17.62
2022-10-18T16:11:57.263Z,17.61
2022-10-18T16:14:26.083Z,17.53
2022-10-18T16:16:56.628Z,17.27
2022-10-18T16:19:24.409Z,17.11
2022-10-18T16:21:53.974Z,17.02
2022-10-18T16:24:22.302Z,16.84
2022-10-18T16:26:50.479Z,16.70
2022-10-18T16:29:28.521Z,16.61
2022-10-18T16:31:58.331Z,16.46
2022-10-18T16:34:27.288Z,16.32
2022-10-18T16:36:55.320Z,16.20
2022-10-18T16:39:23.564Z,15.98
2022-10-18T16:41:51.780Z,15.83
2022-10-18T16:44:19.553Z,15.69
2022-10-18T16:46:51.057Z,15.56
2022-10-18T16:49:26.170Z,15.64
2022-10-18T16:51:54.367Z,15.48
2022-10-18T16:54:22.925Z,15.42
2022-10-18T16:56:50.575Z,15.23
2022-10-18T16:59:26.304Z,15.15
2022-10-18T17:01:54.421Z,15.03
2022-10-18T17:04:21.941Z,14.84
2022-10-18T17:06:49.606Z,14.73
2022-10-18T17:09:17.430Z,14.65
2022-10-18T17:11:44.842Z,14.59
2022-10-18T17:14:12.228Z,14.54
2022-10-18T17:16:39.973Z,14.39
2022-10-18T17:19:10.607Z,14.40
2022-10-18T17:21:38.083Z,14.19
2022-10-18T17:24:06.304Z,14.13
2022-10-18T17:26:34.418Z,14.03
2022-10-18T17:29:05.870Z,13.97
2022-10-18T17:31:35.580Z,13.99
2022-10-18T17:34:03.787Z,14.03
2022-10-18T17:36:32.499Z,13.92
2022-10-18T17:39:00.597Z,14.00
2022-10-18T17:41:28.070Z,13.96
2022-10-18T17:43:55.532Z,14.01
2022-10-18T17:46:23.794Z,14.07
2022-10-18T17:48:51.288Z,13.90
2022-10-18T17:51:18.784Z,13.78
2022-10-18T17:53:46.634Z,13.71
2022-10-18T17:56:15.011Z,13.54
2022-10-18T17:58:46.895Z,13.48
2022-10-18T18:01:23.003Z,13.46
2022-10-18T18:03:55.496Z,13.49
2022-10-18T18:06:31.386Z,13.46
2022-10-18T18:09:00.790Z,13.44
2022-10-18T18:11:28.925Z,13.45
2022-10-18T18:13:56.683Z,13.34
2022-10-18T18:16:27.132Z,13.25
2022-10-18T18:18:57.097Z,13.13
2022-10-18T18:21:26.820Z,13.02
2022-10-18T18:23:55.128Z,12.92
2022-10-18T18:26:23.003Z,12.87
2022-10-18T18:28:50.912Z,12.80
2022-10-18T18:31:23.573Z,12.87
2022-10-18T18:33:53.493Z,12.86
2022-10-18T18:36:22.389Z,12.72
2022-10-18T18:38:55.487Z,12.50
2022-10-18T18:41:27.730Z,12.40
2022-10-18T18:43:57.701Z,12.46
2022-10-18T18:46:27.804Z,12.58
2022-10-18T18:48:57.778Z,12.35
2022-10-18T18:51:28.939Z,12.43
2022-10-18T18:53:56.375Z,12.43
2022-10-18T18:56:26.196Z,12.28
2022-10-18T18:58:54.624Z,12.29
2022-10-18T19:01:25.327Z,12.14
2022-10-18T19:03:54.490Z,12.13
2022-10-18T19:06:28.834Z,12.05
2022-10-18T19:09:01.328Z,11.96
2022-10-18T19:11:33.618Z,11.96
2022-10-18T19:14:02.527Z,11.90
2022-10-18T19:16:31.596Z,11.86
2022-10-18T19:19:07.046Z,11.84
2022-10-18T19:21:37.599Z,11.86
2022-10-18T19:24:06.493Z,11.80
2022-10-18T19:26:50.036Z,11.81
2022-10-18T19:29:29.009Z,11.80
2022-10-18T19:31:59.456Z,11.81
2022-10-18T19:34:28.856Z,11.82
2022-10-18T19:36:57.110Z,11.80
2022-10-18T19:39:32.880Z,11.78
2022-10-18T19:42:03.483Z,11.79
2022-10-18T19:44:32.499Z,11.77
2022-10-18T19:47:00.409Z,11.72
2022-10-18T19:49:28.773Z,11.60
2022-10-18T19:51:57.017Z,11.49
2022-10-18T19:54:25.258Z,11.46
2022-10-18T19:56:52.705Z,11.54
2022-10-18T19:59:21.261Z,11.57
2022-10-18T20:01:49.157Z,11.51
2022-10-18T20:04:16.994Z,11.41
2022-10-18T20:06:44.875Z,11.38
2022-10-18T20:09:16.265Z,11.36
2022-10-18T20:11:52.229Z,11.39
2022-10-18T20:14:20.154Z,11.33
2022-10-18T20:16:47.920Z,11.39
2022-10-18T20:19:15.335Z,11.35
2022-10-18T20:21:42.752Z,11.32
2022-10-18T20:24:11.112Z,11.34
2022-10-18T20:26:39.640Z,11.27
2022-10-18T20:29:07.947Z,11.15
2022-10-18T20:31:38.496Z,11.00
2022-10-18T20:34:11.934Z,10.89
2022-10-18T20:36:40.377Z,10.86
2022-10-18T20:39:08.190Z,10.96
2022-10-18T20:41:38.624Z,11.03
2022-10-18T20:44:10.638Z,10.82
2022-10-18T20:46:39.171Z,10.85
2022-10-18T20:49:08.484Z,10.89
2022-10-18T20:51:35.915Z,10.85
2022-10-18T20:56:38.828Z,10.77
2022-10-18T20:59:09.472Z,10.75
2022-10-18T21:01:39.029Z,10.75
2022-10-18T21:04:10.079Z,10.79
2022-10-18T21:06:40.999Z,10.76
2022-10-18T21:09:10.179Z,10.64
2022-10-18T21:11:39.959Z,10.74
2022-10-18T21:14:10.655Z,10.53
2022-10-18T21:16:38.392Z,10.44
2022-10-18T21:19:21.210Z,10.45
2022-10-18T21:21:51.555Z,10.36
2022-10-18T21:24:20.669Z,10.38
2022-10-18T21:26:48.814Z,10.41
2022-10-18T21:29:21.554Z,10.37
2022-10-18T21:31:52.378Z,10.31
2022-10-18T21:34:20.598Z,10.31
2022-10-18T21:36:48.682Z,10.40
2022-10-18T21:39:25.507Z,10.26
2022-10-18T21:41:53.268Z,10.29
2022-10-18T21:44:20.720Z,10.37
2022-10-18T21:46:48.206Z,10.37
2022-10-18T21:49:16.537Z,10.46
2022-10-18T21:51:44.634Z,10.43
2022-10-18T21:54:14.562Z,10.52
2022-10-18T21:56:42.498Z,10.54
2022-10-18T21:59:12.140Z,10.56
2022-10-18T22:01:40.278Z,10.58
2022-10-18T22:04:18.919Z,10.53
2022-10-18T22:06:46.403Z,10.45
2022-10-18T22:09:14.340Z,10.47
2022-10-18T22:11:47.743Z,10.40
2022-10-18T22:14:15.520Z,10.38
2022-10-18T22:16:43.147Z,10.35
2022-10-18T22:19:10.596Z,10.24
2022-10-18T22:21:38.271Z,10.31
2022-10-18T22:24:08.137Z,10.20
2022-10-18T22:26:38.926Z,10.18
2022-10-18T22:29:10.304Z,10.06
2022-10-18T22:31:40.377Z,10.03
2022-10-18T22:34:11.592Z,10.01
2022-10-18T22:36:39.235Z,9.97
2022-10-18T22:39:07.395Z,10.00
2022-10-18T22:41:36.072Z,10.06
2022-10-18T22:44:04.095Z,10.02
2022-10-18T22:46:33.050Z,10.00
2022-10-18T22:49:00.828Z,10.03
2022-10-18T22:51:28.229Z,10.08
2022-10-18T22:53:56.016Z,10.14
2022-10-18T22:56:23.937Z,10.02
2022-10-18T22:58:51.499Z,10.09
2022-10-18T23:01:21.520Z,9.98
2022-10-18T23:03:56.674Z,10.00
2022-10-18T23:06:32.940Z,9.97
2022-10-18T23:09:05.054Z,10.09
2022-10-18T23:11:33.697Z,10.13
2022-10-18T23:14:03.786Z,10.18
2022-10-18T23:16:31.731Z,10.18
2022-10-18T23:18:59.863Z,10.10
2022-10-18T23:21:28.831Z,10.11
2022-10-18T23:23:57.141Z,10.08
2022-10-18T23:26:26.744Z,9.98
2022-10-18T23:28:54.967Z,10.06
2022-10-18T23:31:25.947Z,9.99
2022-10-18T23:33:56.358Z,9.93
2022-10-18T23:36:24.557Z,10.00
2022-10-18T23:38:52.643Z,10.08
2022-10-18T23:41:20.400Z,10.16
2022-10-18T23:43:47.941Z,10.10
2022-10-18T23:46:16.782Z,10.05
2022-10-18T23:48:44.595Z,10.07
2022-10-18T23:51:12.227Z,10.00
2022-10-18T23:53:40.120Z,10.01
2022-10-18T23:56:13.443Z,10.00
2022-10-18T23:58:41.276Z,10.06
